Time;durP1;ratioP1;P1;durP2;ratioP2;P2;SDS_P1;SDS_P2;PMS_P1;PMS_P2;Temp;Humidity;BMP_temperature;BMP_pressure;BME280_temperature;BME280_humidity;BME280_pressure;Samples;Min_cycle;Max_cycle;Signal;HPM_P1;HPM_P2
2021/06/09 00:00:36;;;;;;;8.23;6.28;;;;;;;18.35;68.13;100016.25;1740666;80;21058;-65
2021/06/09 00:03:04;;;;;;;8.95;6.70;;;;;;;18.37;67.97;100020.91;1741518;80;21717;-65
2021/06/09 00:05:30;;;;;;;8.83;6.70;;;;;;;18.33;68.01;100017.46;1747453;79;21081;-65
2021/06/09 00:07:57;;;;;;;8.53;6.80;;;;;;;18.28;68.00;100019.33;1763255;79;22142;-64
2021/06/09 00:10:25;;;;;;;9.03;6.65;;;;;;;18.23;68.08;100023.05;1759995;80;21552;-65
2021/06/09 00:12:51;;;;;;;9.35;6.80;;;;;;;18.20;68.16;100020.73;1745347;81;21059;-65
2021/06/09 00:15:21;;;;;;;9.05;6.97;;;;;;;18.24;68.14;100028.70;1759402;79;21020;-65
2021/06/09 00:17:47;;;;;;;9.03;6.80;;;;;;;18.26;68.16;100024.02;1761624;79;22225;-65
2021/06/09 00:20:18;;;;;;;8.93;6.20;;;;;;;18.25;68.19;100025.02;1769247;79;21039;-65
2021/06/09 00:22:45;;;;;;;11.15;7.45;;;;;;;18.21;68.23;100021.08;1766223;79;21006;-65
2021/06/09 00:25:15;;;;;;;12.82;7.30;;;;;;;18.16;68.34;100026.94;1768223;79;22964;-65
2021/06/09 00:27:48;;;;;;;13.75;8.28;;;;;;;18.11;68.48;100017.34;1738181;81;21002;-64
2021/06/09 00:30:19;;;;;;;10.55;7.22;;;;;;;18.09;68.65;100016.70;1747469;80;21327;-65
2021/06/09 00:32:46;;;;;;;11.40;7.10;;;;;;;18.13;68.90;100008.66;1760231;79;21064;-65
2021/06/09 00:35:13;;;;;;;9.40;6.75;;;;;;;18.17;68.95;100015.77;1763374;80;21029;-65
2021/06/09 00:37:39;;;;;;;10.93;7.45;;;;;;;18.19;68.74;100020.44;1759215;79;21031;-65
2021/06/09 00:40:08;;;;;;;8.90;6.85;;;;;;;18.19;68.59;100017.77;1761040;79;20994;-64
2021/06/09 00:42:35;;;;;;;7.87;6.53;;;;;;;18.16;68.55;100010.14;1758733;79;22257;-65
2021/06/09 00:45:01;;;;;;;9.38;6.30;;;;;;;18.08;68.61;100011.55;1766036;80;21074;-66
2021/06/09 00:47:28;;;;;;;9.40;6.20;;;;;;;17.99;68.74;100010.29;1742278;80;21037;-65
2021/06/09 00:49:54;;;;;;;9.53;6.37;;;;;;;17.93;68.89;100004.34;1754831;80;21095;-65
2021/06/09 00:52:26;;;;;;;9.75;6.53;;;;;;;17.90;68.97;100007.36;1753742;80;21082;-65
2021/06/09 00:54:54;;;;;;;8.70;5.85;;;;;;;17.96;68.92;100005.32;1752862;80;21537;-65
2021/06/09 00:57:23;;;;;;;8.13;6.12;;;;;;;18.01;68.80;100002.94;1751102;79;21080;-65
2021/06/09 00:59:49;;;;;;;8.75;5.65;;;;;;;18.07;68.87;100004.08;1710690;81;21058;-65
2021/06/09 01:02:16;;;;;;;8.00;6.55;;;;;;;18.10;68.91;100005.02;1737554;80;21031;-65
2021/06/09 01:04:42;;;;;;;9.88;7.22;;;;;;;18.11;68.87;100012.52;1734198;82;21093;-65
2021/06/09 01:07:12;;;;;;;8.90;6.65;;;;;;;18.08;68.63;100008.38;1740010;80;22041;-65
2021/06/09 01:09:38;;;;;;;9.23;6.30;;;;;;;18.02;68.58;100002.43;1754074;81;21084;-65
2021/06/09 01:12:06;;;;;;;6.95;5.62;;;;;;;17.99;68.57;100004.15;1765500;80;21038;-65
2021/06/09 01:14:32;;;;;;;7.95;6.05;;;;;;;18.03;68.46;100004.61;1767499;79;21038;-66
2021/06/09 01:16:59;;;;;;;10.10;5.80;;;;;;;18.08;68.50;100007.55;1717185;81;21042;-65
2021/06/09 01:19:25;;;;;;;7.20;5.80;;;;;;;18.10;68.49;100007.68;1751552;80;21133;-66
2021/06/09 01:21:52;;;;;;;10.08;6.35;;;;;;;18.09;68.53;100014.03;1749626;81;21364;-65
2021/06/09 01:24:18;;;;;;;10.38;6.65;;;;;;;18.05;68.54;100008.73;1727062;81;21022;-65
2021/06/09 01:26:45;;;;;;;9.50;6.10;;;;;;;18.02;68.53;100007.75;1723803;80;21133;-65
2021/06/09 01:29:11;;;;;;;8.30;6.53;;;;;;;18.00;68.64;99998.64;1725958;81;21789;-66
2021/06/09 01:31:38;;;;;;;12.00;6.85;;;;;;;18.01;68.63;100006.12;1718745;80;21787;-66
2021/06/09 01:34:06;;;;;;;8.95;6.53;;;;;;;18.01;68.68;100000.28;1748696;81;21492;-65
2021/06/09 01:36:39;;;;;;;8.10;6.33;;;;;;;18.02;68.58;100001.09;1748021;80;21101;-65
2021/06/09 01:39:14;;;;;;;8.28;6.37;;;;;;;18.04;68.37;100004.43;1751304;80;21031;-65
2021/06/09 01:41:48;;;;;;;10.90;7.33;;;;;;;18.06;67.99;100005.58;1748297;80;21066;-65
2021/06/09 01:44:15;;;;;;;10.65;6.92;;;;;;;17.98;67.62;100009.95;1752090;81;22309;-65
2021/06/09 01:46:42;;;;;;;12.00;6.70;;;;;;;17.89;67.56;100016.37;1716822;81;21121;-65
2021/06/09 01:49:10;;;;;;;8.75;6.35;;;;;;;17.78;67.59;100018.09;1737356;81;21034;-65
2021/06/09 01:51:37;;;;;;;9.58;7.08;;;;;;;17.65;67.74;100018.67;1741625;80;21105;-65
2021/06/09 01:54:06;;;;;;;9.88;7.12;;;;;;;17.56;67.96;100019.25;1739445;81;21069;-65
2021/06/09 01:56:34;;;;;;;10.90;7.03;;;;;;;17.59;67.99;100021.55;1752545;80;21156;-65
2021/06/09 01:59:20;;;;;;;11.15;7.30;;;;;;;17.62;67.90;100019.87;1751332;80;21039;-65
2021/06/09 02:01:48;;;;;;;8.33;7.28;;;;;;;17.63;67.84;100024.20;1735644;80;21053;-65
2021/06/09 02:04:16;;;;;;;10.32;7.58;;;;;;;17.59;67.93;100022.89;1728023;80;21512;-65
2021/06/09 02:06:44;;;;;;;11.00;7.35;;;;;;;17.57;67.81;100026.23;1722046;80;21545;-66
2021/06/09 02:09:12;;;;;;;11.15;7.92;;;;;;;17.52;67.84;100035.76;1733599;80;21798;-66
2021/06/09 02:11:40;;;;;;;9.00;6.80;;;;;;;17.46;67.89;100037.27;1747479;80;21112;-66
2021/06/09 02:14:07;;;;;;;9.65;6.30;;;;;;;17.45;67.88;100038.30;1751067;80;21563;-66
2021/06/09 02:16:38;;;;;;;8.03;6.28;;;;;;;17.45;67.78;100032.47;1737054;81;21113;-65
2021/06/09 02:19:05;;;;;;;7.53;5.85;;;;;;;17.47;67.68;100036.28;1735302;81;21070;-65
2021/06/09 02:21:33;;;;;;;9.98;7.10;;;;;;;17.48;67.59;100036.59;1752356;80;21092;-64
2021/06/09 02:23:59;;;;;;;10.20;6.35;;;;;;;17.50;67.66;100033.75;1744967;80;21044;-65
2021/06/09 02:26:26;;;;;;;11.53;6.25;;;;;;;17.50;67.51;100035.08;1748788;80;21052;-65
2021/06/09 02:28:52;;;;;;;9.05;6.83;;;;;;;17.50;67.38;100031.94;1723199;81;21136;-64
2021/06/09 02:31:19;;;;;;;8.70;6.50;;;;;;;17.50;67.34;100037.27;1748137;80;21741;-65
2021/06/09 02:33:45;;;;;;;9.83;6.12;;;;;;;17.49;67.35;100032.12;1739029;81;21490;-65
2021/06/09 02:36:14;;;;;;;8.45;6.05;;;;;;;17.51;67.34;100033.58;1752311;80;21030;-65
2021/06/09 02:38:41;;;;;;;8.73;6.05;;;;;;;17.58;67.28;100035.84;1746192;80;20974;-65
2021/06/09 02:41:08;;;;;;;12.05;6.08;;;;;;;17.63;67.19;100036.17;1751065;81;21058;-66
2021/06/09 02:43:35;;;;;;;8.63;6.05;;;;;;;17.65;67.12;100033.31;1748080;80;21060;-66
2021/06/09 02:46:19;;;;;;;9.83;6.72;;;;;;;17.63;67.15;100029.52;1725343;81;21104;-66
2021/06/09 02:48:49;;;;;;;8.90;6.47;;;;;;;17.63;67.30;100034.00;1749074;81;21093;-67
2021/06/09 02:51:18;;;;;;;9.43;6.40;;;;;;;17.66;67.28;100036.31;1751320;81;21101;-66
2021/06/09 02:54:02;;;;;;;10.45;6.85;;;;;;;17.66;67.32;100032.83;1750892;80;21065;-66
2021/06/09 02:56:52;;;;;;;7.65;5.75;;;;;;;17.63;67.65;100030.85;1745761;80;21093;-65
2021/06/09 02:59:54;;;;;;;8.00;5.80;;;;;;;17.63;67.64;100032.19;1726668;81;21140;-66
2021/06/09 03:02:43;;;;;;;8.45;6.33;;;;;;;17.64;67.57;100033.82;1744845;80;21105;-67
2021/06/09 03:05:21;;;;;;;9.05;6.42;;;;;;;17.64;67.74;100036.48;1721564;81;21580;-67
2021/06/09 03:08:17;;;;;;;8.53;6.60;;;;;;;17.65;67.74;100038.62;1743084;81;21065;-67
2021/06/09 03:11:08;;;;;;;8.30;5.65;;;;;;;17.61;67.84;100037.34;1742530;80;22272;-66
2021/06/09 03:16:54;;;;;;;8.80;5.53;;;;;;;17.51;67.81;100040.74;1741682;81;21827;-66
2021/06/09 03:19:23;;;;;;;9.70;5.62;;;;;;;17.51;67.73;100034.91;1746151;80;21451;-67
2021/06/09 03:22:00;;;;;;;6.90;5.12;;;;;;;17.57;67.95;100034.72;1752480;80;21861;-66
2021/06/09 03:24:37;;;;;;;8.00;5.75;;;;;;;17.61;67.75;100040.83;1747598;81;21405;-66
2021/06/09 03:27:12;;;;;;;7.70;5.90;;;;;;;17.65;67.50;100046.61;1751377;80;21865;-67
2021/06/09 03:29:50;;;;;;;8.18;5.75;;;;;;;17.66;67.60;100047.46;1752822;80;21037;-66
2021/06/09 03:32:21;;;;;;;8.85;6.20;;;;;;;17.67;67.60;100043.78;1738603;81;21091;-65
2021/06/09 03:34:59;;;;;;;9.88;6.25;;;;;;;17.67;67.67;100041.12;1741401;80;21509;-66
2021/06/09 03:37:25;;;;;;;9.68;5.87;;;;;;;17.71;67.83;100035.78;1720710;80;21136;-66
2021/06/09 03:39:56;;;;;;;10.00;6.08;;;;;;;17.83;67.69;100044.99;1746818;80;21085;-66
2021/06/09 03:42:20;;;;;;;6.92;5.08;;;;;;;17.97;67.37;100044.73;1725638;81;21544;-67
2021/06/09 03:44:51;;;;;;;7.53;5.60;;;;;;;18.08;67.19;100041.66;1737400;80;21090;-68
2021/06/09 03:47:18;;;;;;;8.38;6.05;;;;;;;18.13;67.15;100041.94;1743421;80;21170;-67
2021/06/09 03:49:45;;;;;;;7.78;5.62;;;;;;;18.19;67.31;100047.06;1717912;81;21098;-66
2021/06/09 03:52:12;;;;;;;8.93;5.50;;;;;;;18.26;67.02;100047.98;1708796;81;22322;-66
2021/06/09 03:54:43;;;;;;;7.90;5.33;;;;;;;18.32;67.11;100051.23;1698645;81;21098;-65
2021/06/09 03:57:10;;;;;;;9.88;5.30;;;;;;;18.43;66.97;100055.83;1712133;81;21058;-66
2021/06/09 03:59:36;;;;;;;7.28;5.10;;;;;;;18.52;66.79;100053.38;1706195;80;21343;-67
2021/06/09 04:02:06;;;;;;;8.38;6.25;;;;;;;18.58;66.69;100052.66;1716017;80;21078;-68
2021/06/09 04:04:34;;;;;;;10.23;6.15;;;;;;;18.65;66.88;100060.23;1713625;81;21111;-67
2021/06/09 04:07:02;;;;;;;10.00;6.15;;;;;;;18.66;67.47;100063.72;1736823;80;21619;-67
2021/06/09 04:09:28;;;;;;;8.78;5.78;;;;;;;18.68;67.32;100063.87;1743074;80;20955;-65
2021/06/09 04:12:04;;;;;;;9.78;5.97;;;;;;;18.74;67.46;100070.29;1723206;81;21041;-66
2021/06/09 04:14:35;;;;;;;;;;;;;;;18.81;67.09;100071.23;1745337;80;21066;-66
2021/06/09 04:17:04;;;;;;;9.08;6.75;;;;;;;18.84;67.23;100065.53;1682292;80;21062;-67
2021/06/09 04:19:33;;;;;;;7.17;5.45;;;;;;;18.84;67.49;100067.39;1742125;80;21916;-66
2021/06/09 04:22:03;;;;;;;9.08;6.25;;;;;;;18.86;67.90;100068.02;1743170;80;21638;-66
2021/06/09 04:24:38;;;;;;;8.55;6.90;;;;;;;18.89;68.28;100064.99;1711180;81;21062;-64
2021/06/09 04:27:08;;;;;;;9.00;6.30;;;;;;;18.94;68.54;100068.75;1733436;80;21059;-65
2021/06/09 04:29:34;;;;;;;10.25;7.55;;;;;;;19.02;68.08;100067.83;1729238;80;22488;-67
2021/06/09 04:32:00;;;;;;;9.75;7.37;;;;;;;19.08;67.94;100066.25;1730666;80;21043;-66
2021/06/09 04:34:27;;;;;;;8.50;6.87;;;;;;;19.10;67.66;100061.58;1739394;80;21953;-66
2021/06/09 04:36:54;;;;;;;9.55;7.05;;;;;;;19.08;67.71;100064.43;1717584;81;22232;-66
2021/06/09 04:39:20;;;;;;;11.95;7.35;;;;;;;19.07;67.43;100064.09;1741948;80;21105;-66
2021/06/09 04:41:47;;;;;;;10.75;7.15;;;;;;;19.09;67.72;100060.73;1758105;79;21105;-66
2021/06/09 04:44:14;;;;;;;9.75;6.92;;;;;;;19.18;67.80;100061.48;1731032;80;21042;-66
2021/06/09 04:46:41;;;;;;;9.78;6.83;;;;;;;19.26;67.96;100062.67;1742283;80;21086;-67
2021/06/09 04:49:07;;;;;;;8.63;6.30;;;;;;;19.32;67.93;100061.12;1743747;80;21130;-66
2021/06/09 04:51:36;;;;;;;9.08;6.42;;;;;;;19.37;67.83;100056.05;1751847;80;21729;-67
2021/06/09 04:54:04;;;;;;;9.85;7.58;;;;;;;19.43;67.44;100064.64;1744807;80;21106;-67
2021/06/09 04:56:37;;;;;;;10.00;6.28;;;;;;;19.51;67.37;100065.53;1744434;80;21089;-68
2021/06/09 04:59:06;;;;;;;8.78;6.53;;;;;;;19.57;66.76;100066.09;1748387;80;21085;-67
2021/06/09 05:01:38;;;;;;;8.88;6.70;;;;;;;19.61;65.83;100070.05;1748690;80;21132;-67
2021/06/09 05:04:05;;;;;;;11.40;9.28;;;;;;;19.56;65.64;100071.94;1747031;79;21045;-67
2021/06/09 05:06:31;;;;;;;14.60;9.80;;;;;;;19.54;65.83;100066.48;1726130;80;21049;-68
2021/06/09 05:08:57;;;;;;;9.43;7.15;;;;;;;19.57;66.00;100066.09;1750401;80;21643;-68
2021/06/09 05:11:38;;;;;;;10.82;7.20;;;;;;;19.64;65.09;100061.14;1752778;80;21031;-65
2021/06/09 05:14:28;;;;;;;10.10;7.35;;;;;;;19.76;65.01;100070.02;1719451;81;21081;-68
2021/06/09 05:16:55;;;;;;;11.63;7.70;;;;;;;19.79;64.45;100069.12;1748664;80;20918;-67
2021/06/09 05:19:23;;;;;;;12.37;8.13;;;;;;;19.79;64.78;100066.98;1752231;80;21182;-67
2021/06/09 05:21:52;;;;;;;11.73;6.60;;;;;;;19.82;64.80;100074.09;1742667;80;21557;-68
2021/06/09 05:24:19;;;;;;;12.75;7.70;;;;;;;19.86;64.92;100069.19;1747223;80;21485;-67
2021/06/09 05:26:46;;;;;;;11.15;8.45;;;;;;;19.96;64.40;100067.02;1756955;80;21818;-68
2021/06/09 05:29:14;;;;;;;10.08;7.53;;;;;;;20.07;64.53;100071.52;1747515;80;21025;-67
2021/06/09 05:31:41;;;;;;;8.50;6.67;;;;;;;20.10;63.69;100067.13;1749636;80;21053;-67
2021/06/09 05:34:07;;;;;;;11.10;8.63;;;;;;;20.15;63.79;100073.54;1746225;80;20989;-66
2021/06/09 05:36:34;;;;;;;9.30;6.90;;;;;;;20.14;63.38;100066.56;1735595;80;20994;-68
2021/06/09 05:39:00;;;;;;;9.50;6.53;;;;;;;20.18;63.64;100062.99;1747031;80;21057;-67
2021/06/09 05:41:26;;;;;;;8.85;6.70;;;;;;;20.28;63.05;100064.00;1730498;81;20985;-68
2021/06/09 05:43:53;;;;;;;11.10;5.58;;;;;;;20.36;62.91;100059.84;1751662;80;21351;-68
2021/06/09 05:46:19;;;;;;;10.98;6.67;;;;;;;20.38;62.79;100059.95;1749555;80;21081;-68
2021/06/09 05:48:46;;;;;;;9.90;5.60;;;;;;;20.41;62.86;100056.08;1747995;80;21061;-67
2021/06/09 05:51:16;;;;;;;7.83;5.28;;;;;;;20.44;62.81;100061.52;1732159;81;21669;-69
2021/06/09 05:53:42;;;;;;;9.15;5.37;;;;;;;20.51;62.54;100062.39;1753686;79;21093;-71
2021/06/09 05:56:09;;;;;;;11.73;6.50;;;;;;;20.62;61.90;100062.37;1774367;79;21052;-68
2021/06/09 05:58:39;;;;;;;9.13;5.55;;;;;;;20.69;61.48;100069.42;1755685;79;21595;-68
2021/06/09 06:01:09;;;;;;;9.13;6.00;;;;;;;20.72;61.43;100068.22;1709795;81;21459;-67
2021/06/09 06:03:38;;;;;;;11.83;6.83;;;;;;;20.75;60.59;100072.66;1760273;79;21054;-68
2021/06/09 06:06:07;;;;;;;11.05;5.72;;;;;;;20.76;60.49;100070.30;1755251;80;21046;-67
2021/06/09 06:08:36;;;;;;;11.05;6.40;;;;;;;20.77;60.55;100068.45;1755184;79;21037;-67
2021/06/09 06:11:05;;;;;;;10.70;5.15;;;;;;;20.80;60.18;100071.25;1756790;80;22523;-68
2021/06/09 06:13:36;;;;;;;8.68;4.92;;;;;;;20.82;60.81;100066.00;1762341;79;21097;-67
2021/06/09 06:16:03;;;;;;;8.95;5.33;;;;;;;20.93;60.58;100065.94;1758721;79;21053;-70
2021/06/09 06:18:36;;;;;;;8.75;4.95;;;;;;;21.03;59.91;100068.25;1752593;79;21575;-68
2021/06/09 06:21:04;;;;;;;10.08;6.25;;;;;;;21.07;59.76;100074.35;1768803;79;21858;-68
2021/06/09 06:23:30;;;;;;;8.68;5.20;;;;;;;21.11;59.04;100068.91;1768758;79;21139;-67
2021/06/09 06:25:59;;;;;;;11.73;4.85;;;;;;;21.12;59.01;100070.56;1768354;79;21566;-67
2021/06/09 06:31:11;;;;;;;8.88;5.00;;;;;;;21.11;59.89;100064.89;1874909;74;21941;-68
2021/06/09 06:33:39;;;;;;;8.80;4.62;;;;;;;21.18;59.24;100074.80;1840872;77;20996;-69
2021/06/09 06:36:07;;;;;;;7.65;4.65;;;;;;;21.28;58.92;100068.56;1821963;76;21149;-70
2021/06/09 06:38:36;;;;;;;11.63;5.17;;;;;;;21.34;59.07;100072.59;1820306;77;20960;-67
2021/06/09 06:41:03;;;;;;;7.65;4.95;;;;;;;21.38;59.08;100070.34;1810500;77;20919;-68
2021/06/09 06:43:31;;;;;;;7.20;4.97;;;;;;;21.43;59.18;100073.76;1817818;77;21065;-68
2021/06/09 06:45:57;;;;;;;10.40;4.90;;;;;;;21.46;58.59;100076.84;1816497;77;21094;-68
2021/06/09 06:48:23;;;;;;;7.05;4.95;;;;;;;21.50;59.00;100075.47;1819534;77;21512;-69
2021/06/09 06:50:50;;;;;;;7.85;5.35;;;;;;;21.60;59.57;100075.58;1826572;77;21031;-69
2021/06/09 06:53:17;;;;;;;7.78;5.40;;;;;;;21.68;59.51;100073.53;1814186;77;22201;-68
2021/06/09 06:55:44;;;;;;;8.23;6.30;;;;;;;21.76;59.05;100066.36;1805547;77;21619;-69
2021/06/09 06:58:10;;;;;;;10.00;5.22;;;;;;;21.77;59.29;100073.34;1785476;77;21045;-69
2021/06/09 07:00:37;;;;;;;8.13;4.45;;;;;;;21.81;59.17;100074.08;1811517;77;21129;-68
2021/06/09 07:03:03;;;;;;;6.85;4.58;;;;;;;21.91;58.28;100069.66;1757256;77;21025;-67
2021/06/09 07:05:33;;;;;;;8.23;5.03;;;;;;;21.97;57.88;100070.19;1813619;77;21038;-67
2021/06/09 07:08:01;;;;;;;6.55;4.53;;;;;;;22.00;56.97;100074.30;1825377;77;21588;-69
2021/06/09 07:10:27;;;;;;;7.25;4.87;;;;;;;22.04;57.03;100072.34;1788555;77;21047;-67
2021/06/09 07:12:55;;;;;;;6.35;4.65;;;;;;;22.08;56.24;100072.76;1770950;78;21071;-66
2021/06/09 07:15:21;;;;;;;6.58;4.25;;;;;;;22.12;56.56;100076.66;1782352;79;21055;-66
2021/06/09 07:17:50;;;;;;;7.95;5.37;;;;;;;22.15;55.95;100071.42;1752453;81;21370;-67
2021/06/09 07:20:22;;;;;;;7.92;4.17;;;;;;;22.16;56.43;100069.06;1750894;80;20966;-66
2021/06/09 07:22:50;;;;;;;8.88;4.05;;;;;;;22.21;55.63;100065.24;1752032;80;22242;-66
2021/06/09 07:25:17;;;;;;;6.78;4.55;;;;;;;22.25;55.09;100066.47;1755830;80;21079;-66
2021/06/09 07:27:46;;;;;;;5.40;3.58;;;;;;;22.29;55.15;100067.72;1755016;80;20950;-66
2021/06/09 07:30:15;;;;;;;5.35;3.72;;;;;;;22.31;55.14;100065.67;1758174;80;20866;-66
2021/06/09 07:32:42;;;;;;;6.92;4.03;;;;;;;22.32;53.98;100067.30;1758012;80;20961;-67
2021/06/09 07:35:09;;;;;;;6.25;4.35;;;;;;;22.33;54.13;100068.15;1729078;80;21111;-67
2021/06/09 07:37:46;;;;;;;6.97;4.92;;;;;;;22.35;54.69;100073.59;1758157;79;21814;-68
2021/06/09 07:40:23;;;;;;;6.70;4.40;;;;;;;22.34;54.96;100067.95;1723090;81;20951;-67
2021/06/09 07:42:54;;;;;;;7.58;4.03;;;;;;;22.37;54.95;100061.33;1754723;80;20949;-66
2021/06/09 07:45:22;;;;;;;7.17;4.60;;;;;;;22.40;54.53;100063.59;1756501;80;21548;-66
2021/06/09 07:47:49;;;;;;;9.90;4.92;;;;;;;22.43;54.01;100069.89;1754777;79;21013;-68
2021/06/09 07:50:24;;;;;;;7.70;4.15;;;;;;;22.47;54.07;100075.13;1758877;79;21090;-67
2021/06/09 07:52:50;;;;;;;6.58;4.10;;;;;;;22.53;53.71;100065.44;1749512;79;21841;-68
2021/06/09 07:55:17;;;;;;;7.00;4.17;;;;;;;22.54;53.40;100067.89;1753092;80;21065;-67
2021/06/09 07:57:44;;;;;;;10.38;4.10;;;;;;;22.55;52.38;100066.87;1757647;79;21131;-66
2021/06/09 08:00:12;;;;;;;8.10;3.72;;;;;;;22.60;52.33;100066.25;1681055;79;21057;-67
2021/06/09 08:02:41;;;;;;;6.47;3.62;;;;;;;22.68;51.74;100069.20;1753488;79;21175;-66
2021/06/09 08:05:10;;;;;;;7.33;3.65;;;;;;;22.75;51.76;100064.66;1754412;79;21103;-67
2021/06/09 08:07:38;;;;;;;9.00;3.87;;;;;;;22.79;50.21;100066.69;1756139;79;21080;-67
2021/06/09 08:10:10;;;;;;;6.25;4.10;;;;;;;22.82;49.96;100066.28;1753276;79;21001;-67
2021/06/09 08:12:37;;;;;;;8.15;4.80;;;;;;;22.86;49.80;100064.52;1757392;80;21513;-66
2021/06/09 08:15:07;;;;;;;8.93;4.35;;;;;;;22.87;51.01;100062.16;1723053;81;21094;-67
2021/06/09 08:17:33;;;;;;;7.90;4.30;;;;;;;22.91;52.32;100066.05;1750537;80;21301;-67
2021/06/09 08:19:59;;;;;;;7.65;4.47;;;;;;;22.96;51.34;100064.39;1750614;80;21097;-67
2021/06/09 08:22:26;;;;;;;6.58;4.80;;;;;;;23.01;52.27;100065.08;1739655;80;21028;-67
2021/06/09 08:24:52;;;;;;;6.92;4.28;;;;;;;23.06;51.81;100061.27;1750548;79;21076;-67
2021/06/09 08:27:20;;;;;;;6.50;4.92;;;;;;;23.11;51.53;100061.98;1751533;80;21030;-66
2021/06/09 08:29:47;;;;;;;7.05;4.28;;;;;;;23.11;51.92;100064.14;1753888;80;21089;-66
2021/06/09 08:32:13;;;;;;;6.80;5.15;;;;;;;23.15;52.10;100062.69;1746261;80;21045;-67
2021/06/09 08:34:40;;;;;;;8.70;4.80;;;;;;;23.18;51.93;100060.92;1719992;79;21170;-67
2021/06/09 08:37:06;;;;;;;7.25;4.50;;;;;;;23.23;51.94;100062.13;1753248;80;21084;-66
2021/06/09 08:39:33;;;;;;;7.67;5.40;;;;;;;23.26;51.12;100063.86;1751644;80;21113;-67
2021/06/09 08:42:02;;;;;;;6.72;4.90;;;;;;;23.27;50.83;100064.18;1756152;79;21028;-67
2021/06/09 08:44:29;;;;;;;6.42;4.12;;;;;;;23.32;50.95;100067.57;1758831;79;21072;-68
2021/06/09 08:46:58;;;;;;;6.20;4.50;;;;;;;23.37;50.85;100060.52;1751439;79;21080;-68
2021/06/09 08:49:24;;;;;;;8.95;4.58;;;;;;;23.43;50.88;100068.74;1759942;79;21023;-67
2021/06/09 08:51:53;;;;;;;6.17;3.92;;;;;;;23.47;51.33;100062.73;1756536;79;21093;-68
2021/06/09 08:54:19;;;;;;;5.60;3.95;;;;;;;23.53;50.13;100067.22;1757233;80;21072;-68
2021/06/09 08:56:46;;;;;;;6.85;4.72;;;;;;;23.61;50.38;100065.34;1755686;80;21041;-67
2021/06/09 08:59:13;;;;;;;7.97;4.75;;;;;;;23.65;49.25;100055.80;1720324;81;21041;-68
2021/06/09 09:01:39;;;;;;;6.83;4.15;;;;;;;23.72;47.88;100059.25;1751722;79;21063;-69
2021/06/09 09:04:06;;;;;;;6.92;3.83;;;;;;;23.74;48.32;100058.01;1726714;81;21033;-67
2021/06/09 09:06:32;;;;;;;6.30;4.00;;;;;;;23.79;47.77;100057.36;1751292;80;21068;-66
2021/06/09 09:08:59;;;;;;;7.12;3.90;;;;;;;23.85;47.71;100052.47;1763919;79;21041;-67
2021/06/09 09:11:27;;;;;;;9.18;3.65;;;;;;;23.88;48.19;100052.05;1749431;81;21586;-67
2021/06/09 09:13:55;;;;;;;5.72;3.50;;;;;;;23.91;48.36;100049.45;1749321;80;22450;-67
2021/06/09 09:16:21;;;;;;;6.42;4.53;;;;;;;23.95;48.46;100051.98;1718027;81;21065;-67
2021/06/09 09:19:03;;;;;;;7.12;4.08;;;;;;;24.00;47.42;100051.34;1755330;79;21507;-68
2021/06/09 09:21:39;;;;;;;7.30;3.75;;;;;;;24.07;48.35;100045.38;1761582;79;20891;-69
2021/06/09 09:24:09;;;;;;;6.10;4.10;;;;;;;24.13;48.34;100048.55;1754094;79;20990;-67
2021/06/09 09:26:38;;;;;;;5.72;3.52;;;;;;;24.16;46.61;100044.58;1751386;80;20972;-69
2021/06/09 09:29:21;;;;;;;5.85;3.00;;;;;;;24.23;46.46;100042.67;1752845;80;21156;-69
2021/06/09 09:31:55;;;;;;;5.80;3.42;;;;;;;24.30;46.22;100034.83;1755253;79;21086;-68
2021/06/09 09:34:43;;;;;;;5.12;3.25;;;;;;;24.35;45.93;100034.70;1754683;79;22078;-68
2021/06/09 09:37:21;;;;;;;6.10;4.00;;;;;;;24.39;45.70;100035.88;1750465;80;21069;-68
2021/06/09 09:40:14;;;;;;;6.83;4.05;;;;;;;24.40;46.25;100037.01;1723130;81;21065;-68
2021/06/09 09:42:37;;;;;;;5.75;3.60;;;;;;;24.43;45.92;100025.00;1754550;79;21867;-68
2021/06/09 09:45:18;;;;;;;6.15;3.80;;;;;;;24.43;45.42;100019.63;1752700;79;21042;-69
2021/06/09 09:47:49;;;;;;;4.80;3.30;;;;;;;24.46;45.73;100021.84;1754803;80;21084;-69
2021/06/09 09:50:35;;;;;;;5.97;3.67;;;;;;;24.52;45.50;100017.45;1728632;80;20968;-68
2021/06/09 09:56:04;;;;;;;6.10;3.63;;;;;;;24.63;44.99;100012.19;1752633;79;22229;-69
2021/06/09 09:58:51;;;;;;;6.12;3.87;;;;;;;24.69;45.21;100016.36;1769021;80;21053;-68
2021/06/09 10:01:22;;;;;;;5.85;3.33;;;;;;;24.73;45.20;100013.51;1766494;79;21040;-65
2021/06/09 10:03:52;;;;;;;5.33;3.33;;;;;;;24.79;43.73;100001.86;1766344;79;21519;-69
2021/06/09 10:06:33;;;;;;;6.37;3.67;;;;;;;24.83;43.04;100000.34;1770493;79;21050;-69
2021/06/09 10:09:12;;;;;;;5.10;3.33;;;;;;;24.89;43.70;99997.29;1775170;78;22242;-69
2021/06/09 10:11:41;;;;;;;5.78;3.30;;;;;;;24.97;44.20;99998.33;1747730;79;22404;-69
2021/06/09 10:14:25;;;;;;;5.17;3.27;;;;;;;25.01;44.63;99994.12;1772371;79;21276;-69
2021/06/09 10:17:07;;;;;;;5.95;3.77;;;;;;;25.06;44.04;99997.48;1750982;79;22503;-68
2021/06/09 10:19:46;;;;;;;7.17;3.58;;;;;;;25.16;43.39;99992.36;1777890;78;21802;-69
2021/06/09 10:22:19;;;;;;;5.20;3.17;;;;;;;25.20;42.36;99985.46;1753066;79;20921;-70
2021/06/09 10:24:51;;;;;;;6.53;3.67;;;;;;;25.21;43.09;99981.73;1778243;79;20971;-68
2021/06/09 10:27:19;;;;;;;4.95;2.90;;;;;;;25.24;41.49;99976.42;1780915;79;20901;-68
2021/06/09 10:29:45;;;;;;;5.60;3.22;;;;;;;25.29;42.73;99977.94;1781666;79;20872;-69
2021/06/09 10:32:18;;;;;;;5.62;3.50;;;;;;;25.32;42.36;99971.56;1723447;81;21059;-68
2021/06/09 10:34:46;;;;;;;5.08;2.95;;;;;;;25.30;42.60;99971.48;1746942;80;21144;-68
2021/06/09 10:37:14;;;;;;;6.37;3.52;;;;;;;25.31;41.53;99965.86;1786264;78;21030;-68
2021/06/09 10:39:43;;;;;;;5.70;3.10;;;;;;;25.38;42.05;99964.42;1777919;79;21130;-69
2021/06/09 10:42:14;;;;;;;4.37;2.60;;;;;;;25.47;41.73;99962.20;1751149;79;22162;-68
2021/06/09 10:44:44;;;;;;;6.83;3.35;;;;;;;25.53;41.52;99958.59;1752222;79;21042;-69
2021/06/09 10:47:20;;;;;;;4.33;2.67;;;;;;;25.62;40.87;99961.27;1725302;79;21080;-69
2021/06/09 10:49:46;;;;;;;5.58;2.72;;;;;;;25.70;38.92;99962.23;1727331;80;21092;-66
2021/06/09 10:52:14;;;;;;;6.05;2.47;;;;;;;25.75;36.54;99965.59;1726204;80;21090;-69
2021/06/09 10:54:41;;;;;;;5.40;2.70;;;;;;;25.78;36.76;99961.09;1755446;79;21046;-68
2021/06/09 10:57:08;;;;;;;4.03;2.17;;;;;;;25.82;36.03;99954.70;1752817;79;21096;-68
2021/06/09 10:59:36;;;;;;;4.92;2.50;;;;;;;25.85;37.22;99950.19;1750466;79;22806;-69
2021/06/09 11:04:46;;;;;;;4.62;2.50;;;;;;;25.89;37.33;99950.84;1781616;79;22496;-67
2021/06/09 11:07:42;;;;;;;6.97;2.83;;;;;;;25.88;35.98;99945.69;1727693;81;21514;-67
2021/06/09 11:10:17;;;;;;;4.70;2.85;;;;;;;25.97;37.26;99940.78;1743972;80;21153;-66
2021/06/09 11:12:50;;;;;;;5.30;2.60;;;;;;;26.07;37.81;99938.31;1687803;82;21007;-66
2021/06/09 11:15:22;;;;;;;5.45;2.42;;;;;;;26.14;36.98;99930.41;1712253;81;21085;-67
2021/06/09 11:17:56;;;;;;;4.85;2.70;;;;;;;26.19;37.52;99924.81;1714864;82;20960;-67
2021/06/09 11:20:30;;;;;;;5.75;2.92;;;;;;;26.21;37.71;99923.53;1711320;82;21010;-67
2021/06/09 11:23:05;;;;;;;7.55;3.00;;;;;;;26.27;37.50;99924.45;1708023;83;22285;-66
2021/06/09 11:25:39;;;;;;;6.00;3.15;;;;;;;26.33;36.73;99924.33;1662532;83;21051;-68
2021/06/09 11:28:08;;;;;;;7.10;3.20;;;;;;;26.40;36.77;99913.94;1686214;83;21807;-66
2021/06/09 11:30:40;;;;;;;4.78;2.72;;;;;;;26.44;36.38;99911.84;1708861;83;21113;-67
2021/06/09 11:33:09;;;;;;;7.37;3.25;;;;;;;26.49;37.25;99917.88;1708750;83;21157;-67
2021/06/09 11:35:51;;;;;;;4.12;2.60;;;;;;;26.52;36.16;99913.36;1688652;83;21145;-67
2021/06/09 11:38:29;;;;;;;5.85;2.87;;;;;;;26.50;36.30;99920.34;1690000;82;21105;-67
2021/06/09 11:41:07;;;;;;;5.35;2.98;;;;;;;26.37;35.80;99902.27;1685524;84;21116;-68
2021/06/09 11:43:46;;;;;;;4.95;2.92;;;;;;;26.17;36.40;99910.76;1657705;84;21138;-68
2021/06/09 11:46:20;;;;;;;5.95;3.42;;;;;;;25.95;37.14;99912.72;1667354;84;21090;-68
2021/06/09 11:48:59;;;;;;;5.47;3.15;;;;;;;25.75;37.79;99917.90;1690288;83;21847;-68